Time;durP1;ratioP1;P1;durP2;ratioP2;P2;SDS_P1;SDS_P2;PMS_P1;PMS_P2;Temp;Humidity;BMP_temperature;BMP_pressure;BME280_temperature;BME280_humidity;BME280_pressure;Samples;Min_cycle;Max_cycle;Signal;HPM_P1;HPM_P2
2022/04/21 00:00:46;;;;;;;0.30;0.20;;;;;;;10.29;78.16;99848.38;5051408;28;21041;-47
2022/04/21 00:03:14;;;;;;;0.30;0.20;;;;;;;10.20;78.06;99850.44;5051321;28;21057;-47
2022/04/21 00:05:41;;;;;;;2.00;1.07;;;;;;;10.24;77.54;99844.97;5051450;28;20454;-46
2022/04/21 00:08:08;;;;;;;0.30;0.20;;;;;;;9.93;78.78;99844.25;5051547;28;20526;-48
2022/04/21 00:10:34;;;;;;;0.30;0.20;;;;;;;10.03;79.10;99843.03;5051371;28;20511;-47
2022/04/21 00:13:01;;;;;;;0.30;0.20;;;;;;;10.02;78.26;99841.31;5054543;28;20451;-47
2022/04/21 00:15:28;;;;;;;0.30;0.20;;;;;;;10.16;78.20;99836.41;5054931;28;20928;-47
2022/04/21 00:17:57;;;;;;;0.30;0.20;;;;;;;9.92;78.76;99834.56;5054825;28;20963;-47
2022/04/21 00:20:23;;;;;;;0.40;0.40;;;;;;;9.75;79.70;99829.81;5055157;28;20475;-47
2022/04/21 00:25:37;;;;;;;0.30;0.20;;;;;;;10.04;78.76;99842.13;5046222;28;20470;-47
2022/04/21 00:28:05;;;;;;;0.40;0.30;;;;;;;9.87;78.95;99831.16;5045069;28;20521;-47
2022/04/21 00:30:32;;;;;;;0.37;0.30;;;;;;;10.09;78.48;99829.53;5054879;28;20519;-47
2022/04/21 00:32:58;;;;;;;0.30;0.20;;;;;;;10.02;78.41;99830.69;5054890;28;20450;-48
2022/04/21 00:35:25;;;;;;;0.30;0.20;;;;;;;10.06;78.55;99827.00;5054837;28;20483;-47
2022/04/21 00:37:54;;;;;;;0.30;0.20;;;;;;;9.93;78.68;99825.69;5054712;28;20446;-47
2022/04/21 00:40:23;;;;;;;3.00;2.27;;;;;;;9.82;79.42;99827.81;5054511;28;20455;-49
2022/04/21 00:42:49;;;;;;;0.30;0.20;;;;;;;9.89;78.85;99830.22;5054504;28;20477;-47
2022/04/21 00:45:16;;;;;;;0.30;0.30;;;;;;;9.61;79.62;99824.09;5054405;28;20958;-47
2022/04/21 00:47:45;;;;;;;0.30;0.20;;;;;;;9.66;79.54;99825.66;5054601;28;20483;-47
2022/04/21 00:50:28;;;;;;;0.30;0.20;;;;;;;9.53;80.94;99824.31;5054480;28;20508;-47
2022/04/21 00:52:56;;;;;;;0.30;0.20;;;;;;;9.57;80.99;99831.25;5054376;28;20447;-48
2022/04/21 00:55:23;;;;;;;0.83;0.83;;;;;;;9.39;82.13;99835.38;5042019;28;20544;-47
2022/04/21 00:57:52;;;;;;;0.30;0.20;;;;;;;9.35;82.21;99830.22;5052983;28;21004;-47
2022/04/21 01:00:19;;;;;;;0.30;0.20;;;;;;;8.96;83.92;99826.97;5054213;28;21006;-48
2022/04/21 01:02:54;;;;;;;0.30;0.20;;;;;;;9.00;83.86;99820.66;5054024;28;20474;-48
2022/04/21 01:05:32;;;;;;;0.30;0.20;;;;;;;8.78;83.76;99823.97;5054317;28;20442;-47
2022/04/21 01:08:04;;;;;;;0.30;0.20;;;;;;;8.73;84.63;99817.03;5053955;28;20935;-48
2022/04/21 01:10:34;;;;;;;0.30;0.20;;;;;;;8.42;85.81;99811.75;5054339;28;20451;-46
2022/04/21 01:13:04;;;;;;;0.30;0.20;;;;;;;8.42;86.47;99814.38;5054109;28;20450;-47
2022/04/21 01:15:32;;;;;;;0.30;0.20;;;;;;;8.42;86.00;99806.44;5054077;28;20963;-47
2022/04/21 01:17:58;;;;;;;0.30;0.20;;;;;;;8.17;87.08;99817.66;5054303;28;20443;-48
2022/04/21 01:20:26;;;;;;;0.40;0.20;;;;;;;8.22;86.95;99815.78;5041411;28;20471;-47
2022/04/21 01:22:53;;;;;;;0.30;0.20;;;;;;;7.88;87.37;99820.19;5053501;28;20446;-47
2022/04/21 01:25:20;;;;;;;0.40;0.30;;;;;;;7.83;87.38;99820.31;5047635;28;20451;-48
2022/04/21 01:27:52;;;;;;;0.40;0.30;;;;;;;7.96;87.20;99816.44;5043402;28;20581;-47
2022/04/21 01:30:18;;;;;;;0.30;0.20;;;;;;;7.66;87.75;99826.00;5053494;28;20500;-47
2022/04/21 01:32:49;;;;;;;0.40;0.30;;;;;;;7.65;88.20;99820.75;5053553;28;20921;-46
2022/04/21 01:35:16;;;;;;;0.30;0.20;;;;;;;7.59;88.31;99821.78;5053791;28;20449;-47
2022/04/21 01:43:13;;;;;;;0.40;0.30;;;;;;;7.56;88.57;99800.69;5053488;28;20965;-47
2022/04/21 01:45:41;;;;;;;0.30;0.20;;;;;;;7.49;88.07;99803.50;5053609;28;20446;-47
2022/04/21 01:48:08;;;;;;;0.30;0.20;;;;;;;7.51;88.19;99793.75;5052984;28;20888;-47
2022/04/21 01:50:35;;;;;;;0.30;0.20;;;;;;;7.32;88.45;99791.56;5053268;28;20482;-47
2022/04/21 01:53:01;;;;;;;0.33;0.20;;;;;;;7.15;89.05;99791.09;5053276;28;20447;-47
2022/04/21 01:55:28;;;;;;;0.30;0.20;;;;;;;7.22;89.55;99797.97;5053310;28;20447;-46
2022/04/21 01:57:55;;;;;;;0.50;0.40;;;;;;;7.32;89.06;99794.22;5053005;28;20505;-47
2022/04/21 02:00:23;;;;;;;0.30;0.20;;;;;;;7.22;88.30;99797.09;5053284;28;20450;-47
2022/04/21 02:02:50;;;;;;;0.63;0.63;;;;;;;7.01;89.87;99794.03;5052984;28;20474;-47
2022/04/21 02:05:17;;;;;;;0.30;0.20;;;;;;;7.29;88.51;99790.78;5053262;28;20539;-47
2022/04/21 02:07:44;;;;;;;1.50;1.50;;;;;;;7.35;88.77;99794.13;5053019;28;20457;-46
2022/04/21 02:10:17;;;;;;;0.30;0.20;;;;;;;7.47;88.40;99792.09;5052980;28;20496;-48
2022/04/21 02:12:45;;;;;;;0.30;0.20;;;;;;;7.38;88.77;99795.81;5053001;28;20490;-47
2022/04/21 02:15:13;;;;;;;0.30;0.20;;;;;;;7.21;88.47;99796.22;5053062;28;20505;-47
2022/04/21 02:17:40;;;;;;;0.30;0.20;;;;;;;6.87;89.60;99798.75;5052880;28;20479;-47
2022/04/21 02:20:09;;;;;;;0.30;0.20;;;;;;;6.87;89.61;99804.03;5042666;28;20490;-46
2022/04/21 02:22:37;;;;;;;0.30;0.20;;;;;;;6.90;90.70;99797.81;5049751;28;20467;-46
2022/04/21 02:25:06;;;;;;;0.30;0.20;;;;;;;6.96;90.71;99787.97;5046528;28;20451;-46
2022/04/21 02:27:35;;;;;;;1.33;1.33;;;;;;;6.87;90.54;99788.19;5042749;28;20927;-47
2022/04/21 02:30:06;;;;;;;0.40;0.23;;;;;;;6.96;90.67;99787.97;5052791;28;20490;-47
2022/04/21 02:32:33;;;;;;;0.30;0.20;;;;;;;6.85;91.04;99787.34;5052299;28;20873;-46
2022/04/21 02:35:00;;;;;;;0.30;0.20;;;;;;;6.75;91.74;99781.41;5052176;28;20486;-47
2022/04/21 02:37:27;;;;;;;0.30;0.20;;;;;;;6.87;91.13;99784.69;5052334;28;20455;-46
2022/04/21 02:39:54;;;;;;;0.30;0.20;;;;;;;6.74;91.81;99779.66;5052724;28;20470;-48
2022/04/21 02:42:21;;;;;;;0.30;0.20;;;;;;;6.76;91.39;99782.25;5026569;28;20532;-46
2022/04/21 02:44:48;;;;;;;0.30;0.20;;;;;;;6.72;91.43;99781.47;5052577;28;20457;-48
2022/04/21 02:47:16;;;;;;;0.30;0.20;;;;;;;6.75;92.22;99776.13;5052364;28;20526;-47
2022/04/21 02:49:46;;;;;;;0.30;0.30;;;;;;;6.68;91.53;99765.69;5051986;28;20524;-47
2022/04/21 02:52:13;;;;;;;0.30;0.20;;;;;;;6.48;90.87;99776.69;5068318;22;20518;-53
2022/04/21 02:57:27;;;;;;;0.30;0.20;;;;;;;6.22;92.56;99771.94;5044356;28;20432;-53
2022/04/21 02:59:59;;;;;;;0.30;0.20;;;;;;;6.23;92.77;99774.53;5053431;28;20447;-53
2022/04/21 03:02:25;;;;;;;0.30;0.20;;;;;;;6.38;92.97;99772.50;5054496;28;20493;-53
2022/04/21 03:04:54;;;;;;;0.30;0.20;;;;;;;6.26;92.98;99770.09;5055552;28;20485;-52
2022/04/21 03:07:22;;;;;;;0.30;0.20;;;;;;;6.21;93.43;99771.06;5053938;28;20553;-53
2022/04/21 03:09:50;;;;;;;0.30;0.20;;;;;;;6.42;92.56;99774.16;5055349;28;20486;-53
2022/04/21 03:12:16;;;;;;;0.30;0.20;;;;;;;6.41;93.24;99772.41;5055343;28;20467;-53
2022/04/21 03:14:43;;;;;;;0.30;0.20;;;;;;;6.53;92.80;99773.03;5055251;28;20446;-61
2022/04/21 03:17:10;;;;;;;0.30;0.20;;;;;;;6.72;92.42;99764.75;5054941;28;20451;-58
2022/04/21 03:19:37;;;;;;;0.43;0.43;;;;;;;6.49;93.61;99767.88;5054710;28;20469;-53
2022/04/21 03:24:50;;;;;;;0.30;0.20;;;;;;;6.38;92.85;99762.81;5053883;28;20456;-53
2022/04/21 03:27:17;;;;;;;0.30;0.20;;;;;;;6.44;93.16;99761.78;5043997;28;20887;-54
2022/04/21 03:29:44;;;;;;;0.30;0.20;;;;;;;6.39;92.61;99763.66;5055419;28;20902;-52
2022/04/21 03:32:13;;;;;;;0.30;0.20;;;;;;;6.23;93.47;99756.06;5055102;28;20467;-53
2022/04/21 03:34:43;;;;;;;0.30;0.20;;;;;;;6.16;93.05;99757.06;5054397;28;20458;-53
2022/04/21 03:37:13;;;;;;;0.30;0.20;;;;;;;5.98;93.40;99760.06;5055169;28;20447;-57
2022/04/21 03:39:41;;;;;;;0.30;0.20;;;;;;;5.86;93.24;99768.16;5054749;28;21008;-52
2022/04/21 03:42:20;;;;;;;0.30;0.20;;;;;;;5.92;94.34;99776.00;5054564;28;21017;-52
2022/04/21 03:44:47;;;;;;;0.40;0.30;;;;;;;5.80;93.98;99771.78;5054916;28;20873;-52
2022/04/21 03:47:13;;;;;;;0.30;0.20;;;;;;;5.81;94.96;99765.63;5055477;28;20465;-57
2022/04/21 03:49:40;;;;;;;0.30;0.20;;;;;;;5.90;94.77;99769.91;5058426;28;20624;-52
2022/04/21 03:52:09;;;;;;;0.30;0.20;;;;;;;5.98;93.56;99781.16;5057948;28;20478;-52
2022/04/21 03:54:37;;;;;;;0.30;0.20;;;;;;;5.96;94.41;99782.09;5057385;28;20446;-52
2022/04/21 03:57:05;;;;;;;0.30;0.20;;;;;;;6.25;94.09;99771.84;5056123;28;20446;-52
2022/04/21 03:59:32;;;;;;;0.50;0.50;;;;;;;6.02;94.06;99780.19;5058330;28;20469;-53
2022/04/21 04:02:02;;;;;;;0.30;0.20;;;;;;;5.89;94.23;99773.38;5058667;28;20473;-52
2022/04/21 04:04:30;;;;;;;0.30;0.20;;;;;;;5.86;94.93;99773.44;5058771;28;20476;-53
2022/04/21 04:12:35;;;;;;;0.30;0.20;;;;;;;5.82;95.03;99775.25;5058519;28;20808;-53
2022/04/21 04:15:05;;;;;;;0.30;0.20;;;;;;;5.92;94.17;99768.97;5058789;28;20872;-52
2022/04/21 04:17:32;;;;;;;0.30;0.20;;;;;;;5.94;94.15;99772.44;5058714;28;20497;-53
2022/04/21 04:19:59;;;;;;;0.30;0.20;;;;;;;5.89;94.26;99778.66;5058756;28;20443;-53
2022/04/21 04:22:26;;;;;;;0.30;0.20;;;;;;;5.88;94.27;99775.13;5058754;28;20516;-54
2022/04/21 04:24:56;;;;;;;0.30;0.20;;;;;;;5.86;93.58;99773.44;5058790;28;20504;-53
2022/04/21 04:27:24;;;;;;;0.30;0.20;;;;;;;5.54;94.52;99774.00;5049072;28;20509;-53
2022/04/21 04:29:51;;;;;;;0.30;0.20;;;;;;;5.70;95.88;99771.97;5058741;28;20820;-55
2022/04/21 04:32:18;;;;;;;0.47;0.47;;;;;;;5.57;95.21;99779.22;5058438;28;20494;-53
2022/04/21 04:34:45;;;;;;;0.40;0.40;;;;;;;5.67;94.75;99770.25;5057256;28;20451;-53
2022/04/21 04:37:11;;;;;;;0.30;0.10;;;;;;;5.89;96.26;99773.38;5057974;28;20446;-53
2022/04/21 04:39:38;;;;;;;0.30;0.20;;;;;;;6.20;92.96;99764.03;5058190;28;20451;-53
2022/04/21 04:42:17;;;;;;;0.30;0.20;;;;;;;6.07;94.39;99761.66;5057510;28;20548;-53
2022/04/21 04:44:44;;;;;;;0.30;0.20;;;;;;;5.99;94.52;99764.44;5058682;28;20466;-53
2022/04/21 04:47:11;;;;;;;0.30;0.20;;;;;;;6.06;94.47;99768.72;5057160;28;20447;-53
2022/04/21 04:49:38;;;;;;;0.30;0.20;;;;;;;6.19;93.96;99761.44;5057452;28;20486;-53
2022/04/21 04:52:05;;;;;;;0.30;0.17;;;;;;;5.90;94.55;99761.97;5057729;28;20502;-52
2022/04/21 04:54:32;;;;;;;0.30;0.20;;;;;;;5.81;96.62;99764.75;5057817;28;21001;-52
2022/04/21 04:56:59;;;;;;;0.30;0.20;;;;;;;6.03;95.79;99762.59;5057263;28;20451;-52
2022/04/21 04:59:27;;;;;;;0.30;0.20;;;;;;;6.08;95.67;99761.63;5057909;28;20443;-53
2022/04/21 05:01:54;;;;;;;0.30;0.20;;;;;;;6.18;96.01;99755.28;5057724;28;20842;-57
2022/04/21 05:04:21;;;;;;;0.30;0.20;;;;;;;6.22;95.31;99756.97;5058037;28;20447;-53
2022/04/21 05:06:50;;;;;;;0.30;0.20;;;;;;;6.15;95.56;99754.47;5057967;28;20453;-53
2022/04/21 05:09:19;;;;;;;0.30;0.20;;;;;;;6.21;96.56;99763.13;5057293;28;20913;-53
2022/04/21 05:11:48;;;;;;;0.30;0.20;;;;;;;6.37;95.81;99762.84;5057748;28;20999;-53
2022/04/21 05:14:15;;;;;;;0.30;0.20;;;;;;;6.33;96.52;99761.16;5057252;28;20906;-53
2022/04/21 05:16:41;;;;;;;0.30;0.20;;;;;;;6.52;95.88;99762.53;5057519;28;20508;-52
2022/04/21 05:19:13;;;;;;;0.30;0.20;;;;;;;6.66;95.47;99762.22;5057679;28;20529;-53
2022/04/21 05:21:41;;;;;;;0.30;0.10;;;;;;;6.81;93.81;99767.19;5057772;28;20999;-53
2022/04/21 05:24:10;;;;;;;0.30;0.20;;;;;;;6.87;95.08;99763.56;5056845;28;20928;-52
2022/04/21 05:26:37;;;;;;;0.30;0.20;;;;;;;7.01;95.14;99764.97;5050681;28;21040;-53
2022/04/21 05:32:01;;;;;;;0.30;0.20;;;;;;;7.18;92.77;99772.53;5056773;28;20524;-53
2022/04/21 05:34:29;;;;;;;0.30;0.20;;;;;;;7.55;91.91;99780.44;5045652;28;20446;-53
2022/04/21 05:36:58;;;;;;;0.30;0.20;;;;;;;7.72;90.27;99769.44;5056876;28;20513;-59
2022/04/21 05:39:27;;;;;;;0.57;0.57;;;;;;;8.33;88.64;99773.97;5057164;28;20986;-53
2022/04/21 05:41:55;;;;;;;0.30;0.20;;;;;;;8.56;87.60;99769.84;5056680;28;20471;-53
2022/04/21 05:44:21;;;;;;;0.30;0.20;;;;;;;8.65;86.89;99768.72;5055983;28;20828;-53
2022/04/21 05:46:48;;;;;;;2.73;2.53;;;;;;;8.88;86.01;99768.88;5056394;28;20450;-53
2022/04/21 05:49:16;;;;;;;0.30;0.20;;;;;;;9.03;86.12;99779.00;5056432;28;20517;-53
2022/04/21 05:51:46;;;;;;;0.30;0.20;;;;;;;8.89;85.83;99770.63;5055224;28;20482;-53
2022/04/21 05:54:14;;;;;;;1.80;1.33;;;;;;;8.96;86.29;99772.19;5055530;28;20456;-53
2022/04/21 05:56:41;;;;;;;0.30;0.20;;;;;;;8.85;86.60;99776.94;5055122;28;20458;-53
2022/04/21 05:59:08;;;;;;;0.30;0.20;;;;;;;8.86;87.11;99770.72;5055191;28;20446;-54
2022/04/21 06:01:36;;;;;;;0.30;0.20;;;;;;;8.85;87.35;99772.50;5053527;28;20572;-52
2022/04/21 06:04:03;;;;;;;0.40;0.30;;;;;;;8.99;88.75;99766.78;5054377;28;20983;-53
2022/04/21 06:06:30;;;;;;;0.30;0.20;;;;;;;8.96;88.58;99769.53;5054588;28;20455;-53
2022/04/21 06:08:57;;;;;;;0.30;0.20;;;;;;;9.14;87.83;99768.09;5053660;28;20490;-52
2022/04/21 06:11:24;;;;;;;0.63;0.63;;;;;;;9.14;88.11;99776.03;5053979;28;20510;-52
2022/04/21 06:13:51;;;;;;;0.30;0.20;;;;;;;9.24;88.05;99766.03;5054038;28;20780;-53
2022/04/21 06:16:18;;;;;;;0.40;0.33;;;;;;;9.39;87.40;99769.06;5054058;28;20451;-52
2022/04/21 06:18:44;;;;;;;0.30;0.20;;;;;;;9.39;88.44;99769.06;5053861;28;20447;-53
2022/04/21 06:21:11;;;;;;;0.30;0.20;;;;;;;9.33;88.42;99761.31;5052848;28;20495;-52
2022/04/21 06:23:38;;;;;;;0.30;0.20;;;;;;;9.45;88.64;99765.31;5054093;28;20450;-52
2022/04/21 06:26:05;;;;;;;1.23;1.13;;;;;;;9.65;87.89;99765.56;5051107;28;20454;-53
2022/04/21 06:28:34;;;;;;;0.60;0.60;;;;;;;9.79;87.68;99765.09;5044621;28;20450;-52
2022/04/21 06:31:01;;;;;;;0.30;0.20;;;;;;;9.91;86.88;99761.16;5052955;28;20486;-52
2022/04/21 06:33:31;;;;;;;0.30;0.20;;;;;;;10.08;86.33;99745.50;5052477;28;20491;-52
2022/04/21 06:35:59;;;;;;;0.30;0.20;;;;;;;10.44;85.29;99755.75;5040200;28;20465;-52
2022/04/21 06:38:26;;;;;;;0.30;0.20;;;;;;;10.56;83.84;99750.88;5052615;28;20488;-52
2022/04/21 06:40:53;;;;;;;0.33;0.23;;;;;;;10.91;83.60;99753.97;5052560;28;20871;-52
2022/04/21 06:48:51;;;;;;;0.30;0.20;;;;;;;10.85;79.49;99752.41;5054560;28;20447;-52
2022/04/21 06:51:18;;;;;;;0.30;0.20;;;;;;;10.94;80.00;99751.19;5054166;28;20479;-52
2022/04/21 06:53:44;;;;;;;0.30;0.20;;;;;;;11.12;79.41;99741.63;5053699;28;20450;-52
2022/04/21 06:56:11;;;;;;;0.30;0.20;;;;;;;11.05;80.14;99730.34;5054386;28;20504;-52
2022/04/21 06:58:40;;;;;;;0.30;0.20;;;;;;;11.15;79.34;99734.38;5053321;28;20943;-53
2022/04/21 07:01:06;;;;;;;0.30;0.20;;;;;;;11.38;78.94;99724.63;5053719;28;20813;-55
2022/04/21 07:03:35;;;;;;;0.30;0.20;;;;;;;11.36;78.13;99729.97;5052759;28;20831;-54
2022/04/21 07:06:03;;;;;;;0.47;0.47;;;;;;;11.62;76.94;99728.91;5052564;28;20530;-54
2022/04/21 07:08:30;;;;;;;0.40;0.30;;;;;;;11.66;76.87;99727.88;5039302;28;20458;-54
2022/04/21 07:10:56;;;;;;;0.30;0.20;;;;;;;11.80;76.25;99725.53;5052730;28;20514;-53
2022/04/21 07:13:23;;;;;;;0.30;0.20;;;;;;;11.90;76.51;99739.28;5052388;28;20457;-53
2022/04/21 07:15:50;;;;;;;0.40;0.33;;;;;;;12.01;75.56;99737.03;5052158;28;20463;-54
2022/04/21 07:18:18;;;;;;;0.30;0.20;;;;;;;12.10;75.20;99731.31;5051943;28;20824;-53
2022/04/21 07:20:44;;;;;;;0.30;0.20;;;;;;;12.01;74.48;99737.03;5051588;28;20491;-54
2022/04/21 07:23:11;;;;;;;0.30;0.20;;;;;;;11.90;74.08;99731.31;5052493;28;20763;-53
2022/04/21 07:25:39;;;;;;;0.30;0.20;;;;;;;12.04;74.59;99736.91;5053419;28;21024;-54
2022/04/21 07:28:06;;;;;;;0.30;0.20;;;;;;;12.45;74.00;99723.53;5043247;28;20549;-53
2022/04/21 07:30:33;;;;;;;0.30;0.20;;;;;;;12.60;71.49;99729.97;5052194;28;20496;-53
2022/04/21 07:33:00;;;;;;;0.30;0.20;;;;;;;12.66;71.36;99724.38;5052453;28;20473;-53
2022/04/21 07:35:29;;;;;;;2.77;2.00;;;;;;;12.70;71.01;99729.47;5051278;28;20451;-53
2022/04/21 07:37:59;;;;;;;0.30;0.20;;;;;;;12.77;70.75;99724.75;5053253;28;20457;-54
2022/04/21 07:40:26;;;;;;;0.40;0.30;;;;;;;12.96;69.65;99730.94;5052468;28;20443;-54
2022/04/21 07:42:54;;;;;;;1.40;1.30;;;;;;;12.84;67.86;99734.16;5051806;28;21002;-54
2022/04/21 07:45:21;;;;;;;0.30;0.20;;;;;;;12.98;68.65;99729.06;5051817;28;20455;-54
2022/04/21 07:47:47;;;;;;;0.30;0.20;;;;;;;13.24;68.35;99729.66;5050388;28;20962;-54
2022/04/21 07:50:14;;;;;;;0.70;0.70;;;;;;;13.48;66.92;99724.91;5051569;28;21011;-54
2022/04/21 07:53:18;;;;;;;0.30;0.20;;;;;;;13.43;65.87;99718.91;5051379;28;20557;-51
2022/04/21 07:55:46;;;;;;;0.97;0.97;;;;;;;13.21;66.46;99721.78;5052398;28;20455;-54
2022/04/21 07:58:14;;;;;;;0.30;0.20;;;;;;;13.63;65.58;99718.81;5051592;28;20451;-52
2022/04/21 08:00:40;;;;;;;0.40;0.40;;;;;;;13.46;63.48;99711.66;5051548;28;20948;-52
2022/04/21 08:03:10;;;;;;;0.30;0.20;;;;;;;13.55;63.63;99723.66;5051481;28;20463;-52
2022/04/21 08:05:37;;;;;;;0.50;0.47;;;;;;;13.72;63.76;99720.16;5051389;28;20447;-52
2022/04/21 08:08:04;;;;;;;0.30;0.20;;;;;;;13.50;64.54;99712.34;5051815;28;20505;-54
2022/04/21 08:10:31;;;;;;;0.60;0.60;;;;;;;13.37;63.34;99720.09;5051515;28;20904;-55
2022/04/21 08:12:59;;;;;;;0.37;0.30;;;;;;;13.40;64.36;99722.59;5051675;28;20532;-55
2022/04/21 08:15:33;;;;;;;0.40;0.30;;;;;;;13.52;63.35;99730.00;5051559;28;20454;-54
2022/04/21 08:18:01;;;;;;;1.23;1.23;;;;;;;13.82;63.45;99719.59;5051368;28;20537;-52
2022/04/21 08:20:30;;;;;;;0.30;0.20;;;;;;;13.87;62.75;99725.59;5051431;28;20857;-52
2022/04/21 08:22:57;;;;;;;0.30;0.20;;;;;;;14.13;62.25;99726.03;5051384;28;20533;-52
2022/04/21 08:34:20;;;;;;;0.30;0.20;;;;;;;13.68;62.48;99732.78;5055081;28;20446;-53
2022/04/21 08:36:52;;;;;;;0.30;0.20;;;;;;;13.71;62.58;99729.13;5055389;28;20489;-52
2022/04/21 08:39:19;;;;;;;0.40;0.30;;;;;;;13.88;61.79;99729.97;5055072;28;21013;-52
2022/04/21 08:41:47;;;;;;;0.30;0.20;;;;;;;13.74;61.88;99737.84;5054510;28;20478;-52
2022/04/21 08:44:19;;;;;;;0.30;0.20;;;;;;;13.62;63.07;99727.75;5054942;28;20447;-53
2022/04/21 08:46:47;;;;;;;0.30;0.20;;;;;;;13.64;62.76;99732.06;5054975;28;20455;-52
2022/04/21 08:49:18;;;;;;;0.30;0.20;;;;;;;13.70;63.23;99727.34;5054632;28;20497;-53
2022/04/21 08:51:44;;;;;;;0.60;0.60;;;;;;;13.67;64.18;99732.84;5054776;28;20491;-52
2022/04/21 08:54:11;;;;;;;1.40;1.40;;;;;;;13.64;63.83;99732.06;5054452;28;20446;-53
2022/04/21 08:56:37;;;;;;;0.30;0.20;;;;;;;13.68;64.39;99722.09;5054502;28;20864;-52
2022/04/21 08:59:04;;;;;;;0.30;0.20;;;;;;;13.79;63.78;99725.09;5054571;28;20451;-52
2022/04/21 09:01:31;;;;;;;0.53;0.50;;;;;;;13.69;63.78;99722.97;5054325;28;20520;-52
2022/04/21 09:03:57;;;;;;;0.30;0.20;;;;;;;13.71;63.61;99732.66;5054307;28;20450;-52
2022/04/21 09:06:24;;;;;;;0.30;0.20;;;;;;;13.77;63.11;99720.78;5054141;28;20862;-52
2022/04/21 09:09:17;;;;;;;0.40;0.40;;;;;;;13.85;62.55;99722.13;5054088;28;20451;-52
2022/04/21 09:11:45;;;;;;;0.30;0.20;;;;;;;13.75;63.85;99722.66;5042151;28;20522;-52
2022/04/21 09:14:16;;;;;;;0.30;0.20;;;;;;;13.57;63.89;99724.47;5053951;28;20447;-52
2022/04/21 09:16:44;;;;;;;0.30;0.20;;;;;;;13.78;63.16;99715.34;5054165;28;20451;-52
2022/04/21 09:19:11;;;;;;;0.30;0.20;;;;;;;13.40;62.24;99721.75;5053728;28;20453;-53
2022/04/21 09:21:39;;;;;;;0.30;0.20;;;;;;;13.44;63.48;99723.34;5053954;28;20471;-52
2022/04/21 09:24:23;;;;;;;0.30;0.20;;;;;;;13.37;63.97;99721.91;5054194;28;20455;-52
2022/04/21 09:26:51;;;;;;;0.33;0.23;;;;;;;13.44;63.50;99726.00;5045418;28;20514;-52
2022/04/21 09:29:32;;;;;;;0.30;0.20;;;;;;;13.71;63.98;99716.63;5052794;28;20931;-52
2022/04/21 09:32:00;;;;;;;0.50;0.50;;;;;;;13.43;64.28;99725.16;5053800;28;20462;-52
2022/04/21 09:34:35;;;;;;;0.30;0.20;;;;;;;13.39;64.49;99715.53;5054060;28;20447;-52
2022/04/21 09:37:06;;;;;;;0.83;0.83;;;;;;;13.83;64.27;99715.09;5054076;28;20442;-52
2022/04/21 09:39:40;;;;;;;0.30;0.20;;;;;;;13.66;65.38;99718.66;5053672;28;20451;-52
2022/04/21 09:42:08;;;;;;;0.30;0.20;;;;;;;13.51;63.79;99714.06;5053526;28;20510;-52
2022/04/21 09:47:29;;;;;;;1.43;1.13;;;;;;;14.01;62.52;99719.53;5054057;28;20447;-52
2022/04/21 09:49:57;;;;;;;0.30;0.20;;;;;;;13.62;63.53;99709.94;5053376;28;20482;-53
2022/04/21 09:52:28;;;;;;;0.30;0.20;;;;;;;13.77;62.56;99707.41;5053268;28;20474;-52
2022/04/21 09:54:55;;;;;;;0.40;0.30;;;;;;;13.97;62.14;99701.91;5053059;28;20883;-52
2022/04/21 09:57:32;;;;;;;1.50;1.40;;;;;;;13.89;62.92;99698.78;5053400;28;20451;-52
2022/04/21 09:59:59;;;;;;;0.57;0.57;;;;;;;14.57;61.31;99696.97;5053305;28;20534;-52
2022/04/21 10:02:29;;;;;;;0.40;0.30;;;;;;;14.12;61.79;99706.47;5053226;28;20920;-52
2022/04/21 10:04:58;;;;;;;1.63;0.57;;;;;;;14.22;62.09;99696.13;5053047;28;20477;-52
2022/04/21 10:07:26;;;;;;;5.83;0.97;;;;;;;14.42;61.95;99693.28;5053259;28;20453;-52
2022/04/21 10:09:54;;;;;;;0.30;0.20;;;;;;;14.07;61.85;99694.28;5051803;28;20451;-52
2022/04/21 10:12:22;;;;;;;0.40;0.40;;;;;;;14.62;61.48;99680.66;5052818;28;20471;-52
2022/04/21 10:14:50;;;;;;;0.30;0.20;;;;;;;14.72;61.02;99684.56;5052860;28;20847;-52
2022/04/21 10:17:17;;;;;;;0.37;0.30;;;;;;;14.78;61.43;99673.50;5052987;28;21014;-53
2022/04/21 10:19:49;;;;;;;0.40;0.20;;;;;;;14.55;61.49;99676.59;5052666;28;20870;-52
2022/04/21 10:22:23;;;;;;;0.30;0.20;;;;;;;14.74;59.78;99671.97;5053063;28;20528;-52
2022/04/21 10:24:54;;;;;;;0.30;0.20;;;;;;;14.65;60.40;99667.97;5052951;28;20455;-53
2022/04/21 10:27:42;;;;;;;0.30;0.20;;;;;;;14.48;61.04;99676.91;5042497;28;21468;-52
2022/04/21 10:30:20;;;;;;;0.30;0.20;;;;;;;14.29;61.36;99664.63;5051345;28;20919;-52
2022/04/21 10:32:49;;;;;;;0.30;0.20;;;;;;;14.23;61.70;99663.97;5040470;28;20842;-52
2022/04/21 10:35:28;;;;;;;0.93;0.83;;;;;;;14.03;62.15;99649.97;5052649;28;20550;-52
2022/04/21 10:38:18;;;;;;;0.30;0.30;;;;;;;13.80;62.38;99649.34;5052747;28;20554;-52
2022/04/21 10:41:03;;;;;;;0.40;0.30;;;;;;;14.19;62.36;99649.06;5043403;28;20837;-52
2022/04/21 10:43:48;;;;;;;0.30;0.20;;;;;;;14.68;59.40;99645.56;5052603;28;20442;-52
2022/04/21 10:46:22;;;;;;;2.20;1.40;;;;;;;15.14;60.63;99638.44;5052522;28;20517;-52
2022/04/21 10:48:49;;;;;;;0.40;0.40;;;;;;;15.41;59.48;99627.94;5052145;28;20481;-52
2022/04/21 10:57:28;;;;;;;0.30;0.20;;;;;;;15.09;53.85;99629.81;5042615;28;20447;-52
2022/04/21 10:59:58;;;;;;;0.30;0.20;;;;;;;15.20;54.34;99626.50;5051082;28;20482;-52
2022/04/21 11:02:37;;;;;;;0.30;0.20;;;;;;;15.19;54.30;99628.31;5051067;28;20470;-52
2022/04/21 11:05:22;;;;;;;0.30;0.20;;;;;;;15.66;54.65;99609.50;5050652;28;20443;-52
2022/04/21 11:07:52;;;;;;;0.53;0.50;;;;;;;16.15;54.41;99610.94;5051977;28;20458;-53
2022/04/21 11:10:27;;;;;;;0.30;0.20;;;;;;;15.62;55.69;99599.91;5051957;28;21076;-52
2022/04/21 11:12:53;;;;;;;0.77;0.67;;;;;;;15.38;52.55;99601.34;5051996;28;20469;-52
2022/04/21 11:15:34;;;;;;;0.30;0.20;;;;;;;15.98;53.02;99599.47;5051962;28;20932;-52
2022/04/21 11:18:11;;;;;;;0.30;0.20;;;;;;;15.50;54.45;99605.13;5052266;28;20501;-53
2022/04/21 11:20:43;;;;;;;0.30;0.20;;;;;;;15.81;49.60;99588.06;5052230;28;20439;-52
2022/04/21 11:23:23;;;;;;;0.30;0.20;;;;;;;16.09;51.27;99596.13;5052075;28;20475;-52
2022/04/21 11:25:51;;;;;;;0.40;0.40;;;;;;;16.08;51.90;99589.03;5051591;28;20720;-52
2022/04/21 11:28:25;;;;;;;0.40;0.30;;;;;;;16.32;54.06;99588.47;5042782;28;20483;-53
2022/04/21 11:30:59;;;;;;;0.30;0.20;;;;;;;16.20;54.49;99582.91;5051611;28;20552;-52
2022/04/21 11:33:26;;;;;;;0.30;0.30;;;;;;;16.31;51.65;99584.91;5051519;28;20458;-52
2022/04/21 11:36:07;;;;;;;0.30;0.20;;;;;;;16.39;49.30;99585.28;5052000;28;20450;-52
2022/04/21 11:38:40;;;;;;;0.40;0.30;;;;;;;16.26;48.49;99578.97;5051588;28;21029;-52
2022/04/21 11:41:08;;;;;;;0.40;0.30;;;;;;;15.98;48.57;99571.78;5051582;28;20553;-52
2022/04/21 11:43:36;;;;;;;0.30;0.20;;;;;;;16.22;48.13;99564.91;5051778;28;20462;-53
2022/04/21 11:46:09;;;;;;;0.30;0.20;;;;;;;16.24;52.16;99568.34;5051848;28;20501;-52
2022/04/21 11:48:39;;;;;;;1.03;1.03;;;;;;;16.42;50.31;99557.38;5051437;28;20447;-52
2022/04/21 11:51:09;;;;;;;0.30;0.20;;;;;;;16.37;50.84;99562.19;5051272;28;20486;-52
2022/04/21 11:53:40;;;;;;;0.30;0.23;;;;;;;16.05;50.59;99551.72;5051269;28;20508;-53
2022/04/21 11:56:08;;;;;;;0.30;0.20;;;;;;;16.15;50.70;99558.19;5051600;28;20442;-53
2022/04/21 11:58:37;;;;;;;0.30;0.20;;;;;;;16.34;51.68;99573.13;5051518;28;20504;-52
2022/04/21 12:06:44;;;;;;;0.30;0.20;;;;;;;16.20;52.13;99550.72;5051711;28;20451;-52
2022/04/21 12:09:28;;;;;;;0.30;0.20;;;;;;;16.45;51.25;99552.72;5055255;28;20466;-52
2022/04/21 12:11:59;;;;;;;0.30;0.20;;;;;;;16.34;52.96;99544.47;5055120;28;21083;-52
2022/04/21 12:14:27;;;;;;;0.30;0.20;;;;;;;16.61;50.60;99544.53;5054998;28;20500;-52
2022/04/21 12:17:02;;;;;;;0.30;0.20;;;;;;;16.63;50.05;99533.69;5055395;28;20531;-52
2022/04/21 12:19:35;;;;;;;0.30;0.30;;;;;;;16.61;50.42;99533.78;5055056;28;20473;-53
2022/04/21 12:22:05;;;;;;;0.30;0.20;;;;;;;16.49;50.00;99532.75;5055048;28;20540;-53
2022/04/21 12:24:54;;;;;;;0.30;0.20;;;;;;;16.41;52.73;99534.22;5048365;28;20450;-52
2022/04/21 12:27:23;;;;;;;0.40;0.30;;;;;;;16.45;52.44;99525.88;5045757;28;20465;-52
2022/04/21 12:29:56;;;;;;;0.30;0.20;;;;;;;16.33;54.39;99531.19;5055086;28;20504;-53
2022/04/21 12:32:25;;;;;;;0.30;0.20;;;;;;;16.23;54.08;99522.84;5054837;28;20901;-52
2022/04/21 12:34:55;;;;;;;0.30;0.20;;;;;;;16.49;53.94;99523.84;5054761;28;20451;-52
2022/04/21 12:37:32;;;;;;;0.30;0.20;;;;;;;16.39;54.38;99517.34;5054671;28;20447;-52